Red Dog, Alaska
Current Conditions -  °F | °C
As of 12:16 AM on Friday 24 Oct 2014 (Local Time) from PAWN Reporting Station
Overcast Overcast  
Wind Chill: 13°   Ceiling: 2200
Heat Index: 25°   Visibility: 3mi
Dew Point: 18°   Wind: 13mph
Humidity: 74%   Direction: 120°ESE
Pressure: 29.57"   Gusts: 20mph
Location:  68.03°N, 162.9°W
Report Text: PAWN 240816Z AUTO 12011G17KT 3SM OVC022 M04/M08 A2957 RMK AO1
Loading
Personal Weather Stations






























Interactive Weather Map
Tropical Storm Tracking
New forecast layout! Learn more

10-Day Weather Forecast

Advertisements
Track Severe Weather on mobile